sensor_id;sensor_type;location;lat;lon;timestamp;pressure;altitude;pressure_sealevel;temperature;humidity
75650;BME280;64245;51.282;22.494;2023-02-22T00:00:38;98904.06;;;2.54;95.78
75650;BME280;64245;51.282;22.494;2023-02-22T00:03:20;98897.59;;;2.46;95.68
75650;BME280;64245;51.282;22.494;2023-02-22T00:05:52;98914.91;;;2.51;95.68
75650;BME280;64245;51.282;22.494;2023-02-22T00:08:20;98885.66;;;2.38;94.97
75650;BME280;64245;51.282;22.494;2023-02-22T00:10:47;98895.25;;;2.54;95.50
75650;BME280;64245;51.282;22.494;2023-02-22T00:13:17;98912.50;;;2.61;95.38
75650;BME280;64245;51.282;22.494;2023-02-22T00:15:44;98902.06;;;2.45;97.06
75650;BME280;64245;51.282;22.494;2023-02-22T00:18:14;98912.19;;;2.65;95.05
75650;BME280;64245;51.282;22.494;2023-02-22T00:20:40;98893.34;;;2.56;94.74
75650;BME280;64245;51.282;22.494;2023-02-22T00:23:08;98905.16;;;2.64;95.56
75650;BME280;64245;51.282;22.494;2023-02-22T00:25:37;98913.03;;;2.66;95.68
75650;BME280;64245;51.282;22.494;2023-02-22T00:28:02;98928.03;;;2.67;95.18
75650;BME280;64245;51.282;22.494;2023-02-22T00:30:30;98929.59;;;2.57;96.38
75650;BME280;64245;51.282;22.494;2023-02-22T00:32:57;98916.84;;;2.62;96.51
75650;BME280;64245;51.282;22.494;2023-02-22T00:35:25;98909.19;;;2.57;96.27
75650;BME280;64245;51.282;22.494;2023-02-22T00:37:53;98932.72;;;2.63;96.46
75650;BME280;64245;51.282;22.494;2023-02-22T00:40:22;98932.81;;;2.62;96.17
75650;BME280;64245;51.282;22.494;2023-02-22T00:42:49;98934.50;;;2.63;96.44
75650;BME280;64245;51.282;22.494;2023-02-22T00:45:17;98932.81;;;2.62;96.77
75650;BME280;64245;51.282;22.494;2023-02-22T00:47:42;98939.06;;;2.48;97.48
75650;BME280;64245;51.282;22.494;2023-02-22T00:50:09;98923.72;;;2.52;97.29
75650;BME280;64245;51.282;22.494;2023-02-22T00:52:35;98930.53;;;2.43;98.03
75650;BME280;64245;51.282;22.494;2023-02-22T00:55:03;98940.22;;;2.57;96.97
75650;BME280;64245;51.282;22.494;2023-02-22T00:57:30;98924.91;;;2.48;97.00
75650;BME280;64245;51.282;22.494;2023-02-22T00:59:56;98926.34;;;2.66;96.48
75650;BME280;64245;51.282;22.494;2023-02-22T01:02:21;98932.34;;;2.55;96.48
75650;BME280;64245;51.282;22.494;2023-02-22T01:04:47;98946.81;;;2.51;97.52
75650;BME280;64245;51.282;22.494;2023-02-22T01:07:13;98939.56;;;2.53;97.18
75650;BME280;64245;51.282;22.494;2023-02-22T01:09:39;98928.84;;;2.55;96.99
75650;BME280;64245;51.282;22.494;2023-02-22T01:12:06;98944.28;;;2.50;97.11
75650;BME280;64245;51.282;22.494;2023-02-22T01:14:32;98957.44;;;2.51;97.16
75650;BME280;64245;51.282;22.494;2023-02-22T01:16:58;98929.91;;;2.52;96.60
75650;BME280;64245;51.282;22.494;2023-02-22T01:19:23;98960.44;;;2.59;96.59
75650;BME280;64245;51.282;22.494;2023-02-22T01:21:49;98956.72;;;2.62;96.41
75650;BME280;64245;51.282;22.494;2023-02-22T01:24:16;98948.09;;;2.58;96.57
75650;BME280;64245;51.282;22.494;2023-02-22T01:26:43;98967.59;;;2.71;96.45
75650;BME280;64245;51.282;22.494;2023-02-22T01:29:17;98964.06;;;2.71;96.00
75650;BME280;64245;51.282;22.494;2023-02-22T01:31:51;98957.13;;;2.56;96.89
75650;BME280;64245;51.282;22.494;2023-02-22T01:34:17;98959.59;;;2.59;97.06
75650;BME280;64245;51.282;22.494;2023-02-22T01:36:43;98967.22;;;2.51;97.35
75650;BME280;64245;51.282;22.494;2023-02-22T01:39:08;98977.06;;;2.75;96.11
75650;BME280;64245;51.282;22.494;2023-02-22T01:41:37;98982.09;;;2.53;97.35
75650;BME280;64245;51.282;22.494;2023-02-22T01:44:27;98974.72;;;2.71;96.44
75650;BME280;64245;51.282;22.494;2023-02-22T01:46:57;98988.00;;;2.71;96.33
75650;BME280;64245;51.282;22.494;2023-02-22T01:49:26;98983.03;;;2.79;96.04
75650;BME280;64245;51.282;22.494;2023-02-22T01:51:55;98990.56;;;2.72;96.58
75650;BME280;64245;51.282;22.494;2023-02-22T01:54:29;98989.72;;;2.72;96.53
75650;BME280;64245;51.282;22.494;2023-02-22T01:57:03;98978.66;;;2.65;96.53
75650;BME280;64245;51.282;22.494;2023-02-22T01:59:33;98961.78;;;2.52;95.61
75650;BME280;64245;51.282;22.494;2023-02-22T02:02:00;98984.94;;;2.77;95.49
75650;BME280;64245;51.282;22.494;2023-02-22T02:04:26;98984.81;;;2.66;96.03
75650;BME280;64245;51.282;22.494;2023-02-22T02:06:53;98974.69;;;2.58;95.66
75650;BME280;64245;51.282;22.494;2023-02-22T02:09:36;98956.22;;;2.30;96.44
75650;BME280;64245;51.282;22.494;2023-02-22T02:12:05;98950.91;;;2.30;95.93
75650;BME280;64245;51.282;22.494;2023-02-22T02:14:33;98966.09;;;2.28;96.38
75650;BME280;64245;51.282;22.494;2023-02-22T02:17:06;98985.13;;;2.34;96.79
75650;BME280;64245;51.282;22.494;2023-02-22T02:20:06;98995.16;;;2.43;96.19
75650;BME280;64245;51.282;22.494;2023-02-22T02:31:24;98993.91;;;2.22;97.29
75650;BME280;64245;51.282;22.494;2023-02-22T02:34:01;99001.31;;;2.17;97.82
75650;BME280;64245;51.282;22.494;2023-02-22T02:36:42;98997.09;;;2.00;98.29
75650;BME280;64245;51.282;22.494;2023-02-22T02:39:26;98993.44;;;1.89;98.90
75650;BME280;64245;51.282;22.494;2023-02-22T02:41:55;98988.88;;;1.91;98.59
75650;BME280;64245;51.282;22.494;2023-02-22T02:44:37;98995.56;;;1.96;98.69
75650;BME280;64245;51.282;22.494;2023-02-22T02:47:12;98988.03;;;1.90;99.10
75650;BME280;64245;51.282;22.494;2023-02-22T02:49:45;98998.56;;;1.92;99.59
75650;BME280;64245;51.282;22.494;2023-02-22T02:52:13;99000.44;;;1.90;99.39
75650;BME280;64245;51.282;22.494;2023-02-22T02:54:41;98989.72;;;1.77;99.56
75650;BME280;64245;51.282;22.494;2023-02-22T02:57:07;98989.25;;;1.85;99.46
75650;BME280;64245;51.282;22.494;2023-02-22T02:59:35;99011.22;;;2.01;99.33
75650;BME280;64245;51.282;22.494;2023-02-22T03:05:28;99014.75;;;2.01;98.87
75650;BME280;64245;51.282;22.494;2023-02-22T03:13:29;99017.59;;;1.84;98.86
75650;BME280;64245;51.282;22.494;2023-02-22T03:18:33;99023.97;;;1.82;98.58
75650;BME280;64245;51.282;22.494;2023-02-22T03:23:45;99045.13;;;1.69;99.16
75650;BME280;64245;51.282;22.494;2023-02-22T03:26:17;99048.34;;;1.60;99.30
75650;BME280;64245;51.282;22.494;2023-02-22T03:28:50;99042.56;;;1.53;99.29
75650;BME280;64245;51.282;22.494;2023-02-22T03:31:24;99041.59;;;1.40;99.91
75650;BME280;64245;51.282;22.494;2023-02-22T03:33:56;99028.13;;;1.29;99.93
75650;BME280;64245;51.282;22.494;2023-02-22T03:36:30;99039.28;;;1.20;100.00
75650;BME280;64245;51.282;22.494;2023-02-22T03:38:59;99044.22;;;1.26;99.90
75650;BME280;64245;51.282;22.494;2023-02-22T03:41:30;99030.00;;;1.13;100.00
75650;BME280;64245;51.282;22.494;2023-02-22T03:44:02;99048.34;;;1.46;100.00
75650;BME280;64245;51.282;22.494;2023-02-22T03:46:28;99050.31;;;1.42;100.00
75650;BME280;64245;51.282;22.494;2023-02-22T03:49:03;99064.84;;;1.51;100.00
75650;BME280;64245;51.282;22.494;2023-02-22T03:51:33;99051.53;;;1.36;100.00
75650;BME280;64245;51.282;22.494;2023-02-22T03:53:59;99050.50;;;1.39;100.00
75650;BME280;64245;51.282;22.494;2023-02-22T03:56:28;99062.81;;;1.54;99.80
75650;BME280;64245;51.282;22.494;2023-02-22T03:59:05;99076.88;;;1.70;99.26
75650;BME280;64245;51.282;22.494;2023-02-22T04:01:31;99067.56;;;1.63;99.28
75650;BME280;64245;51.282;22.494;2023-02-22T04:03:57;99054.31;;;1.63;99.34
75650;BME280;64245;51.282;22.494;2023-02-22T04:06:22;99068.25;;;1.53;99.60
75650;BME280;64245;51.282;22.494;2023-02-22T04:08:48;99075.63;;;1.76;98.87
75650;BME280;64245;51.282;22.494;2023-02-22T04:11:14;99062.63;;;1.57;97.71
75650;BME280;64245;51.282;22.494;2023-02-22T04:13:40;99072.03;;;1.63;98.62
75650;BME280;64245;51.282;22.494;2023-02-22T04:16:05;99067.75;;;1.74;98.48
75650;BME280;64245;51.282;22.494;2023-02-22T04:18:31;99063.31;;;1.75;97.43
75650;BME280;64245;51.282;22.494;2023-02-22T04:20:56;99077.91;;;1.82;97.58
75650;BME280;64245;51.282;22.494;2023-02-22T04:23:22;99070.06;;;1.66;97.95
75650;BME280;64245;51.282;22.494;2023-02-22T04:25:48;99062.44;;;1.60;97.68
75650;BME280;64245;51.282;22.494;2023-02-22T04:28:14;99086.34;;;1.74;98.10
75650;BME280;64245;51.282;22.494;2023-02-22T04:30:39;99102.19;;;1.76;97.95
75650;BME280;64245;51.282;22.494;2023-02-22T04:33:05;99079.59;;;1.55;98.27
75650;BME280;64245;51.282;22.494;2023-02-22T04:35:30;99091.66;;;1.60;98.23
75650;BME280;64245;51.282;22.494;2023-02-22T04:37:56;99099.63;;;1.74;98.00
75650;BME280;64245;51.282;22.494;2023-02-22T04:40:22;99103.44;;;1.70;98.02
75650;BME280;64245;51.282;22.494;2023-02-22T04:42:48;99112.88;;;1.74;97.79
75650;BME280;64245;51.282;22.494;2023-02-22T04:45:13;99109.50;;;1.72;98.09
75650;BME280;64245;51.282;22.494;2023-02-22T04:47:39;99116.69;;;1.85;97.91
75650;BME280;64245;51.282;22.494;2023-02-22T04:50:08;99098.47;;;1.64;98.08
75650;BME280;64245;51.282;22.494;2023-02-22T04:52:34;99121.34;;;1.67;97.98
75650;BME280;64245;51.282;22.494;2023-02-22T04:54:59;99095.06;;;1.48;97.63
75650;BME280;64245;51.282;22.494;2023-02-22T04:57:25;99107.28;;;1.51;97.60
75650;BME280;64245;51.282;22.494;2023-02-22T04:59:51;99106.53;;;1.49;97.42
75650;BME280;64245;51.282;22.494;2023-02-22T05:02:18;99105.19;;;1.56;97.63
75650;BME280;64245;51.282;22.494;2023-02-22T05:04:44;99110.50;;;1.56;97.33
75650;BME280;64245;51.282;22.494;2023-02-22T05:07:10;99128.72;;;1.62;97.38
75650;BME280;64245;51.282;22.494;2023-02-22T05:10:07;99097.72;;;1.48;97.63
75650;BME280;64245;51.282;22.494;2023-02-22T05:12:35;99129.38;;;1.51;98.19
75650;BME280;64245;51.282;22.494;2023-02-22T05:15:02;99108.41;;;1.32;97.76
75650;BME280;64245;51.282;22.494;2023-02-22T05:17:28;99113.69;;;1.32;97.36
75650;BME280;64245;51.282;22.494;2023-02-22T05:19:54;99119.56;;;1.37;97.50
75650;BME280;64245;51.282;22.494;2023-02-22T05:22:19;99134.44;;;1.40;96.83
75650;BME280;64245;51.282;22.494;2023-02-22T05:24:45;99124.59;;;1.42;97.06
75650;BME280;64245;51.282;22.494;2023-02-22T05:27:11;99126.81;;;1.50;97.17
75650;BME280;64245;51.282;22.494;2023-02-22T05:29:36;99124.69;;;1.41;97.06
75650;BME280;64245;51.282;22.494;2023-02-22T05:32:03;99151.53;;;1.50;96.60
75650;BME280;64245;51.282;22.494;2023-02-22T05:34:31;99155.31;;;1.46;96.55
75650;BME280;64245;51.282;22.494;2023-02-22T05:36:57;99150.59;;;1.51;96.69
75650;BME280;64245;51.282;22.494;2023-02-22T05:39:22;99161.25;;;1.35;96.18
75650;BME280;64245;51.282;22.494;2023-02-22T05:41:48;99162.91;;;1.22;96.87
75650;BME280;64245;51.282;22.494;2023-02-22T05:44:14;99171.56;;;1.26;96.68
75650;BME280;64245;51.282;22.494;2023-02-22T05:46:40;99166.50;;;1.21;96.74
75650;BME280;64245;51.282;22.494;2023-02-22T05:49:05;99152.19;;;1.10;96.50
75650;BME280;64245;51.282;22.494;2023-02-22T05:51:31;99166.97;;;1.14;96.95
75650;BME280;64245;51.282;22.494;2023-02-22T05:53:58;99172.41;;;1.26;96.51
75650;BME280;64245;51.282;22.494;2023-02-22T05:56:25;99168.06;;;1.25;96.02
75650;BME280;64245;51.282;22.494;2023-02-22T05:58:51;99181.66;;;1.19;94.87
75650;BME280;64245;51.282;22.494;2023-02-22T06:01:17;99172.53;;;1.09;95.00
75650;BME280;64245;51.282;22.494;2023-02-22T06:03:46;99181.75;;;1.18;95.33
75650;BME280;64245;51.282;22.494;2023-02-22T06:06:12;99176.66;;;1.15;94.72
75650;BME280;64245;51.282;22.494;2023-02-22T06:08:37;99184.50;;;1.00;95.53
75650;BME280;64245;51.282;22.494;2023-02-22T06:11:03;99184.38;;;0.88;95.46
75650;BME280;64245;51.282;22.494;2023-02-22T06:13:29;99191.47;;;0.87;96.24
75650;BME280;64245;51.282;22.494;2023-02-22T06:15:55;99191.78;;;0.97;95.69
75650;BME280;64245;51.282;22.494;2023-02-22T06:18:20;99211.53;;;1.07;95.34
75650;BME280;64245;51.282;22.494;2023-02-22T06:20:46;99220.88;;;1.14;95.53
75650;BME280;64245;51.282;22.494;2023-02-22T06:23:11;99203.38;;;1.26;95.22
75650;BME280;64245;51.282;22.494;2023-02-22T06:25:37;99201.03;;;1.35;95.06
75650;BME280;64245;51.282;22.494;2023-02-22T06:28:03;99220.84;;;1.30;94.37
75650;BME280;64245;51.282;22.494;2023-02-22T06:30:29;99234.88;;;1.32;94.69
75650;BME280;64245;51.282;22.494;2023-02-22T06:32:55;99204.16;;;1.28;94.57
75650;BME280;64245;51.282;22.494;2023-02-22T06:35:21;99225.44;;;1.42;93.77
75650;BME280;64245;51.282;22.494;2023-02-22T06:37:47;99235.59;;;1.50;93.18
75650;BME280;64245;51.282;22.494;2023-02-22T06:40:14;99235.22;;;1.56;93.15
75650;BME280;64245;51.282;22.494;2023-02-22T06:42:40;99235.97;;;1.44;93.15
75650;BME280;64245;51.282;22.494;2023-02-22T06:45:06;99243.00;;;1.29;93.42
75650;BME280;64245;51.282;22.494;2023-02-22T06:47:32;99240.44;;;1.57;93.23
75650;BME280;64245;51.282;22.494;2023-02-22T06:49:58;99242.06;;;1.30;92.51
75650;BME280;64245;51.282;22.494;2023-02-22T06:52:25;99226.38;;;1.41;92.82
75650;BME280;64245;51.282;22.494;2023-02-22T06:54:51;99245.06;;;1.69;92.04
75650;BME280;64245;51.282;22.494;2023-02-22T06:57:17;99239.25;;;1.63;92.57
75650;BME280;64245;51.282;22.494;2023-02-22T06:59:43;99237.63;;;1.60;91.58
75650;BME280;64245;51.282;22.494;2023-02-22T07:02:10;99250.78;;;1.32;92.28
75650;BME280;64245;51.282;22.494;2023-02-22T07:04:36;99258.75;;;1.32;92.17
75650;BME280;64245;51.282;22.494;2023-02-22T07:07:02;99264.97;;;1.47;92.15
75650;BME280;64245;51.282;22.494;2023-02-22T07:09:28;99255.84;;;1.66;90.47
75650;BME280;64245;51.282;22.494;2023-02-22T07:11:53;99248.19;;;1.46;91.97
75650;BME280;64245;51.282;22.494;2023-02-22T07:14:20;99277.38;;;1.46;90.95
75650;BME280;64245;51.282;22.494;2023-02-22T07:16:46;99248.78;;;1.35;91.49
75650;BME280;64245;51.282;22.494;2023-02-22T07:19:12;99254.66;;;1.11;92.92
75650;BME280;64245;51.282;22.494;2023-02-22T07:21:38;99253.38;;;1.33;91.55
75650;BME280;64245;51.282;22.494;2023-02-22T07:24:04;99264.28;;;1.43;91.10
75650;BME280;64245;51.282;22.494;2023-02-22T07:26:29;99269.41;;;1.46;91.33
75650;BME280;64245;51.282;22.494;2023-02-22T07:28:55;99267.00;;;1.57;89.88
75650;BME280;64245;51.282;22.494;2023-02-22T07:31:21;99274.34;;;1.68;90.78
75650;BME280;64245;51.282;22.494;2023-02-22T07:33:47;99260.34;;;1.50;91.04
75650;BME280;64245;51.282;22.494;2023-02-22T07:36:14;99276.88;;;1.85;90.54
75650;BME280;64245;51.282;22.494;2023-02-22T07:38:43;99283.56;;;1.77;87.34
75650;BME280;64245;51.282;22.494;2023-02-22T07:41:09;99275.03;;;1.71;88.54
75650;BME280;64245;51.282;22.494;2023-02-22T07:43:35;99266.66;;;1.63;87.92
75650;BME280;64245;51.282;22.494;2023-02-22T07:46:01;99289.63;;;1.79;86.98
75650;BME280;64245;51.282;22.494;2023-02-22T07:48:29;99266.34;;;1.84;85.07
75650;BME280;64245;51.282;22.494;2023-02-22T07:50:56;99290.88;;;2.17;85.44
75650;BME280;64245;51.282;22.494;2023-02-22T07:53:24;99293.19;;;2.52;85.10
75650;BME280;64245;51.282;22.494;2023-02-22T07:55:50;99276.38;;;2.51;82.91
75650;BME280;64245;51.282;22.494;2023-02-22T07:58:19;99287.22;;;2.62;82.60
75650;BME280;64245;51.282;22.494;2023-02-22T08:00:45;99275.34;;;2.39;81.98
75650;BME280;64245;51.282;22.494;2023-02-22T08:03:15;99286.56;;;2.59;81.75
75650;BME280;64245;51.282;22.494;2023-02-22T08:05:45;99288.09;;;2.49;81.01
75650;BME280;64245;51.282;22.494;2023-02-22T08:08:11;99283.16;;;2.42;81.94
75650;BME280;64245;51.282;22.494;2023-02-22T08:10:39;99257.97;;;2.20;82.79
75650;BME280;64245;51.282;22.494;2023-02-22T08:13:04;99282.19;;;2.72;81.98
75650;BME280;64245;51.282;22.494;2023-02-22T08:15:33;99267.50;;;2.66;80.76
75650;BME280;64245;51.282;22.494;2023-02-22T08:18:00;99292.81;;;2.58;81.41
75650;BME280;64245;51.282;22.494;2023-02-22T08:20:27;99286.38;;;2.62;80.03
75650;BME280;64245;51.282;22.494;2023-02-22T08:22:53;99289.41;;;2.56;80.00
75650;BME280;64245;51.282;22.494;2023-02-22T08:25:20;99301.38;;;2.63;81.36
75650;BME280;64245;51.282;22.494;2023-02-22T08:27:47;99277.53;;;2.61;79.48
75650;BME280;64245;51.282;22.494;2023-02-22T08:30:21;99288.56;;;2.55;80.40
75650;BME280;64245;51.282;22.494;2023-02-22T08:32:48;99305.34;;;2.41;78.83
75650;BME280;64245;51.282;22.494;2023-02-22T08:35:15;99279.13;;;2.21;79.56
75650;BME280;64245;51.282;22.494;2023-02-22T08:37:46;99301.75;;;2.57;81.79
75650;BME280;64245;51.282;22.494;2023-02-22T08:40:13;99310.94;;;2.37;80.40
75650;BME280;64245;51.282;22.494;2023-02-22T08:42:38;99287.69;;;2.26;80.48
75650;BME280;64245;51.282;22.494;2023-02-22T08:45:05;99287.16;;;2.50;81.13
75650;BME280;64245;51.282;22.494;2023-02-22T08:47:30;99305.16;;;2.73;80.67
75650;BME280;64245;51.282;22.494;2023-02-22T08:49:56;99291.78;;;2.46;79.16
75650;BME280;64245;51.282;22.494;2023-02-22T08:52:21;99288.22;;;2.31;80.18
75650;BME280;64245;51.282;22.494;2023-02-22T08:54:47;99284.25;;;2.24;82.26
75650;BME280;64245;51.282;22.494;2023-02-22T08:57:13;99296.97;;;2.33;82.72
75650;BME280;64245;51.282;22.494;2023-02-22T08:59:39;99283.50;;;2.51;84.25
75650;BME280;64245;51.282;22.494;2023-02-22T09:02:17;99303.75;;;2.67;83.49
75650;BME280;64245;51.282;22.494;2023-02-22T09:04:43;99293.88;;;2.55;84.54
75650;BME280;64245;51.282;22.494;2023-02-22T09:07:09;99307.81;;;2.73;84.24
75650;BME280;64245;51.282;22.494;2023-02-22T09:09:35;99315.59;;;2.90;83.36
75650;BME280;64245;51.282;22.494;2023-02-22T09:12:02;99292.75;;;2.88;83.01
75650;BME280;64245;51.282;22.494;2023-02-22T09:14:28;99312.75;;;2.93;82.07
75650;BME280;64245;51.282;22.494;2023-02-22T09:16:53;99313.03;;;2.89;82.32
75650;BME280;64245;51.282;22.494;2023-02-22T09:19:19;99315.13;;;2.55;84.11
75650;BME280;64245;51.282;22.494;2023-02-22T09:21:56;99303.47;;;2.58;82.63
75650;BME280;64245;51.282;22.494;2023-02-22T09:24:23;99304.63;;;2.68;81.26
75650;BME280;64245;51.282;22.494;2023-02-22T09:26:49;99313.31;;;2.70;81.31
75650;BME280;64245;51.282;22.494;2023-02-22T09:29:24;99316.97;;;2.69;80.99
75650;BME280;64245;51.282;22.494;2023-02-22T09:31:52;99322.81;;;2.46;81.43
75650;BME280;64245;51.282;22.494;2023-02-22T09:34:19;99320.03;;;2.33;81.79
75650;BME280;64245;51.282;22.494;2023-02-22T09:36:47;99324.13;;;2.38;83.31
75650;BME280;64245;51.282;22.494;2023-02-22T09:39:15;99310.06;;;2.22;82.74
75650;BME280;64245;51.282;22.494;2023-02-22T09:41:56;99325.31;;;2.49;82.73
75650;BME280;64245;51.282;22.494;2023-02-22T09:46:56;99318.06;;;2.51;82.52
75650;BME280;64245;51.282;22.494;2023-02-22T09:52:12;99338.41;;;2.80;81.66
75650;BME280;64245;51.282;22.494;2023-02-22T09:57:12;99339.53;;;2.62;80.62
75650;BME280;64245;51.282;22.494;2023-02-22T09:59:44;99342.88;;;2.80;79.82
75650;BME280;64245;51.282;22.494;2023-02-22T10:02:25;99339.81;;;2.57;81.24
75650;BME280;64245;51.282;22.494;2023-02-22T10:05:13;99334.84;;;2.37;82.09
75650;BME280;64245;51.282;22.494;2023-02-22T10:07:51;99329.94;;;2.31;83.25
75650;BME280;64245;51.282;22.494;2023-02-22T10:10:21;99342.22;;;2.62;80.67
75650;BME280;64245;51.282;22.494;2023-02-22T10:13:15;99317.50;;;2.74;80.92
75650;BME280;64245;51.282;22.494;2023-02-22T10:15:50;99331.31;;;2.66;81.11
75650;BME280;64245;51.282;22.494;2023-02-22T10:24:11;99330.56;;;2.34;81.92
75650;BME280;64245;51.282;22.494;2023-02-22T10:26:42;99329.34;;;2.40;82.17
75650;BME280;64245;51.282;22.494;2023-02-22T10:29:19;99336.63;;;2.22;82.74
75650;BME280;64245;51.282;22.494;2023-02-22T10:31:56;99335.88;;;2.34;82.56
75650;BME280;64245;51.282;22.494;2023-02-22T10:34:25;99334.75;;;2.38;82.10
75650;BME280;64245;51.282;22.494;2023-02-22T10:37:22;99328.69;;;2.51;81.70
75650;BME280;64245;51.282;22.494;2023-02-22T10:39:49;99337.06;;;2.59;81.82
75650;BME280;64245;51.282;22.494;2023-02-22T10:42:20;99320.72;;;2.36;81.53
75650;BME280;64245;51.282;22.494;2023-02-22T10:44:48;99331.84;;;2.43;80.96
75650;BME280;64245;51.282;22.494;2023-02-22T10:47:15;99331.84;;;2.57;81.65
75650;BME280;64245;51.282;22.494;2023-02-22T10:49:49;99326.75;;;2.83;82.55
75650;BME280;64245;51.282;22.494;2023-02-22T10:52:25;99330.03;;;2.72;80.38
75650;BME280;64245;51.282;22.494;2023-02-22T10:54:54;99331.47;;;2.63;79.84
75650;BME280;64245;51.282;22.494;2023-02-22T10:57:26;99322.06;;;2.43;78.21
75650;BME280;64245;51.282;22.494;2023-02-22T10:59:53;99323.53;;;2.19;79.00
75650;BME280;64245;51.282;22.494;2023-02-22T11:02:32;99317.00;;;2.25;79.50
75650;BME280;64245;51.282;22.494;2023-02-22T11:05:00;99318.81;;;2.38;81.59
75650;BME280;64245;51.282;22.494;2023-02-22T11:07:29;99341.09;;;2.66;78.66
75650;BME280;64245;51.282;22.494;2023-02-22T11:09:58;99338.00;;;2.43;79.89
75650;BME280;64245;51.282;22.494;2023-02-22T11:12:32;99324.13;;;2.38;79.75
75650;BME280;64245;51.282;22.494;2023-02-22T11:17:51;99332.75;;;2.28;81.08
75650;BME280;64245;51.282;22.494;2023-02-22T11:22:51;99341.75;;;2.84;77.99
75650;BME280;64245;51.282;22.494;2023-02-22T11:25:21;99324.81;;;2.99;77.86
75650;BME280;64245;51.282;22.494;2023-02-22T11:27:51;99341.66;;;2.99;76.95
75650;BME280;64245;51.282;22.494;2023-02-22T11:32:53;99336.50;;;3.10;75.69
75650;BME280;64245;51.282;22.494;2023-02-22T11:35:30;99336.97;;;3.17;74.66
75650;BME280;64245;51.282;22.494;2023-02-22T11:38:20;99347.91;;;3.27;73.83
75650;BME280;64245;51.282;22.494;2023-02-22T11:41:03;99330.66;;;3.32;73.78
75650;BME280;64245;51.282;22.494;2023-02-22T11:43:30;99344.25;;;3.28;75.18
75650;BME280;64245;51.282;22.494;2023-02-22T11:48:45;99326.47;;;2.87;74.48
75650;BME280;64245;51.282;22.494;2023-02-22T11:51:49;99348.09;;;2.81;75.04
75650;BME280;64245;51.282;22.494;2023-02-22T11:54:45;99353.97;;;2.58;74.99
75650;BME280;64245;51.282;22.494;2023-02-22T12:00:13;99339.25;;;2.52;76.69
75650;BME280;64245;51.282;22.494;2023-02-22T12:03:02;99349.13;;;2.50;76.90
75650;BME280;64245;51.282;22.494;2023-02-22T12:05:48;99323.16;;;2.11;77.84
75650;BME280;64245;51.282;22.494;2023-02-22T12:08:51;99334.31;;;2.16;78.03
75650;BME280;64245;51.282;22.494;2023-02-22T12:11:42;99356.09;;;2.23;78.88
75650;BME280;64245;51.282;22.494;2023-02-22T12:14:23;99354.03;;;2.12;78.72
75650;BME280;64245;51.282;22.494;2023-02-22T12:17:13;99361.84;;;2.15;78.47
75650;BME280;64245;51.282;22.494;2023-02-22T12:19:44;99361.94;;;2.14;79.26
75650;BME280;64245;51.282;22.494;2023-02-22T12:22:28;99369.81;;;1.85;79.27
75650;BME280;64245;51.282;22.494;2023-02-22T12:24:59;99358.75;;;1.77;78.26
75650;BME280;64245;51.282;22.494;2023-02-22T12:27:49;99366.84;;;2.05;78.36
75650;BME280;64245;51.282;22.494;2023-02-22T12:30:23;99369.25;;;2.10;76.60
75650;BME280;64245;51.282;22.494;2023-02-22T12:32:57;99373.38;;;2.00;76.96
75650;BME280;64245;51.282;22.494;2023-02-22T12:35:27;99366.50;;;1.96;76.78
75650;BME280;64245;51.282;22.494;2023-02-22T12:40:44;99371.81;;;1.96;76.40
75650;BME280;64245;51.282;22.494;2023-02-22T12:48:52;99390.69;;;1.76;74.31
75650;BME280;64245;51.282;22.494;2023-02-22T12:51:30;99361.19;;;1.50;73.10
75650;BME280;64245;51.282;22.494;2023-02-22T12:54:13;99390.34;;;1.82;72.33
75650;BME280;64245;51.282;22.494;2023-02-22T12:56:47;99379.31;;;1.89;72.89
75650;BME280;64245;51.282;22.494;2023-02-22T12:59:31;99382.81;;;1.74;72.19
75650;BME280;64245;51.282;22.494;2023-02-22T13:02:02;99373.75;;;1.62;69.35
75650;BME280;64245;51.282;22.494;2023-02-22T13:04:34;99374.13;;;1.72;70.62
75650;BME280;64245;51.282;22.494;2023-02-22T13:07:17;99384.97;;;1.83;69.19
75650;BME280;64245;51.282;22.494;2023-02-22T13:12:33;99387.22;;;1.44;68.57
75650;BME280;64245;51.282;22.494;2023-02-22T13:20:47;99390.47;;;1.49;68.92
75650;BME280;64245;51.282;22.494;2023-02-22T13:25:57;99408.78;;;1.53;68.29
75650;BME280;64245;51.282;22.494;2023-02-22T13:28:32;99413.47;;;1.32;68.50
75650;BME280;64245;51.282;22.494;2023-02-22T13:31:05;99412.19;;;1.39;68.85
75650;BME280;64245;51.282;22.494;2023-02-22T13:34:05;99407.75;;;1.40;68.40
75650;BME280;64245;51.282;22.494;2023-02-22T13:36:51;99416.06;;;1.50;69.35
75650;BME280;64245;51.282;22.494;2023-02-22T13:45:19;99406.31;;;1.50;69.23
75650;BME280;64245;51.282;22.494;2023-02-22T13:51:06;99425.63;;;1.36;68.55
75650;BME280;64245;51.282;22.494;2023-02-22T13:53:47;99407.03;;;1.36;70.06
75650;BME280;64245;51.282;22.494;2023-02-22T13:56:14;99421.94;;;1.23;68.77
75650;BME280;64245;51.282;22.494;2023-02-22T13:58:52;99412.50;;;1.18;70.43
75650;BME280;64245;51.282;22.494;2023-02-22T14:04:20;99413.56;;;1.31;68.32
75650;BME280;64245;51.282;22.494;2023-02-22T14:06:46;99409.00;;;1.17;68.56
75650;BME280;64245;51.282;22.494;2023-02-22T14:09:39;99413.19;;;1.21;70.88
75650;BME280;64245;51.282;22.494;2023-02-22T14:12:02;99419.44;;;1.20;68.52
75650;BME280;64245;51.282;22.494;2023-02-22T14:14:28;99427.06;;;1.26;69.13
75650;BME280;64245;51.282;22.494;2023-02-22T14:17:20;99437.59;;;1.28;70.25
75650;BME280;64245;51.282;22.494;2023-02-22T14:20:02;99420.38;;;1.19;70.34
75650;BME280;64245;51.282;22.494;2023-02-22T14:22:28;99419.34;;;1.22;68.74
75650;BME280;64245;51.282;22.494;2023-02-22T14:24:56;99433.06;;;1.30;68.50
75650;BME280;64245;51.282;22.494;2023-02-22T14:27:21;99426.91;;;1.29;67.76
75650;BME280;64245;51.282;22.494;2023-02-22T14:29:53;99410.50;;;1.06;68.79
75650;BME280;64245;51.282;22.494;2023-02-22T14:32:32;99428.84;;;1.10;68.86
75650;BME280;64245;51.282;22.494;2023-02-22T14:35:11;99414.22;;;1.19;68.88
75650;BME280;64245;51.282;22.494;2023-02-22T14:37:40;99452.00;;;1.39;69.42